sensor_id;sensor_type;location;lat;lon;timestamp;P1;durP1;ratioP1;P2;durP2;ratioP2
7444;SDS011;3764;48.126;11.594;2024-01-15T00:01:24;4.97;;;3.70;;
7444;SDS011;3764;48.126;11.594;2024-01-15T00:03:51;9.82;;;4.07;;
7444;SDS011;3764;48.126;11.594;2024-01-15T00:06:19;7.93;;;4.75;;
7444;SDS011;3764;48.126;11.594;2024-01-15T00:08:46;9.07;;;4.40;;
7444;SDS011;3764;48.126;11.594;2024-01-15T00:11:13;7.90;;;4.80;;
7444;SDS011;3764;48.126;11.594;2024-01-15T00:13:40;8.27;;;5.10;;
7444;SDS011;3764;48.126;11.594;2024-01-15T00:16:08;7.00;;;4.70;;
7444;SDS011;3764;48.126;11.594;2024-01-15T00:18:37;11.63;;;6.10;;
7444;SDS011;3764;48.126;11.594;2024-01-15T00:21:04;8.82;;;4.78;;
7444;SDS011;3764;48.126;11.594;2024-01-15T00:23:31;6.07;;;4.10;;
7444;SDS011;3764;48.126;11.594;2024-01-15T00:25:59;10.13;;;4.50;;
7444;SDS011;3764;48.126;11.594;2024-01-15T00:28:26;9.05;;;5.88;;
7444;SDS011;3764;48.126;11.594;2024-01-15T00:30:53;8.20;;;4.60;;
7444;SDS011;3764;48.126;11.594;2024-01-15T00:33:20;11.32;;;5.53;;
7444;SDS011;3764;48.126;11.594;2024-01-15T00:35:49;6.97;;;4.72;;
7444;SDS011;3764;48.126;11.594;2024-01-15T00:38:16;9.27;;;5.50;;
7444;SDS011;3764;48.126;11.594;2024-01-15T00:40:44;11.65;;;6.45;;
7444;SDS011;3764;48.126;11.594;2024-01-15T00:43:11;11.20;;;6.20;;
7444;SDS011;3764;48.126;11.594;2024-01-15T00:45:38;10.32;;;6.05;;
7444;SDS011;3764;48.126;11.594;2024-01-15T00:48:06;10.18;;;6.07;;
7444;SDS011;3764;48.126;11.594;2024-01-15T00:50:34;12.23;;;5.90;;
7444;SDS011;3764;48.126;11.594;2024-01-15T00:53:03;8.05;;;5.47;;
7444;SDS011;3764;48.126;11.594;2024-01-15T00:55:30;10.85;;;5.38;;
7444;SDS011;3764;48.126;11.594;2024-01-15T00:57:57;9.80;;;5.47;;
7444;SDS011;3764;48.126;11.594;2024-01-15T01:00:25;11.23;;;5.68;;
7444;SDS011;3764;48.126;11.594;2024-01-15T01:02:52;8.50;;;5.35;;
7444;SDS011;3764;48.126;11.594;2024-01-15T01:05:19;9.48;;;6.57;;
7444;SDS011;3764;48.126;11.594;2024-01-15T01:07:47;11.35;;;6.53;;
7444;SDS011;3764;48.126;11.594;2024-01-15T01:10:15;13.00;;;6.25;;
7444;SDS011;3764;48.126;11.594;2024-01-15T01:12:43;13.90;;;7.25;;
7444;SDS011;3764;48.126;11.594;2024-01-15T01:15:10;13.45;;;7.55;;
7444;SDS011;3764;48.126;11.594;2024-01-15T01:17:38;15.73;;;7.50;;
7444;SDS011;3764;48.126;11.594;2024-01-15T01:20:06;18.40;;;8.50;;
7444;SDS011;3764;48.126;11.594;2024-01-15T01:22:35;13.40;;;8.30;;
7444;SDS011;3764;48.126;11.594;2024-01-15T01:25:03;14.85;;;7.97;;
7444;SDS011;3764;48.126;11.594;2024-01-15T01:27:32;16.33;;;8.93;;
7444;SDS011;3764;48.126;11.594;2024-01-15T01:29:59;12.63;;;7.90;;
7444;SDS011;3764;48.126;11.594;2024-01-15T01:32:27;13.07;;;7.78;;
7444;SDS011;3764;48.126;11.594;2024-01-15T01:34:54;16.02;;;7.90;;
7444;SDS011;3764;48.126;11.594;2024-01-15T01:37:21;13.05;;;7.25;;
7444;SDS011;3764;48.126;11.594;2024-01-15T01:39:49;10.63;;;7.63;;
7444;SDS011;3764;48.126;11.594;2024-01-15T01:42:16;11.95;;;7.18;;
7444;SDS011;3764;48.126;11.594;2024-01-15T01:44:44;10.00;;;6.53;;
7444;SDS011;3764;48.126;11.594;2024-01-15T01:47:12;11.35;;;7.05;;
7444;SDS011;3764;48.126;11.594;2024-01-15T01:49:41;13.50;;;7.32;;
7444;SDS011;3764;48.126;11.594;2024-01-15T01:52:09;14.23;;;6.97;;
7444;SDS011;3764;48.126;11.594;2024-01-15T01:54:37;17.67;;;8.02;;
7444;SDS011;3764;48.126;11.594;2024-01-15T01:57:06;12.07;;;6.93;;
7444;SDS011;3764;48.126;11.594;2024-01-15T01:59:34;10.90;;;7.10;;
7444;SDS011;3764;48.126;11.594;2024-01-15T02:02:03;13.07;;;7.32;;
7444;SDS011;3764;48.126;11.594;2024-01-15T02:04:31;15.10;;;8.30;;
7444;SDS011;3764;48.126;11.594;2024-01-15T02:07:00;13.07;;;6.30;;
7444;SDS011;3764;48.126;11.594;2024-01-15T02:09:28;11.50;;;6.65;;
7444;SDS011;3764;48.126;11.594;2024-01-15T02:11:55;11.95;;;6.13;;
7444;SDS011;3764;48.126;11.594;2024-01-15T02:14:22;13.63;;;7.07;;
7444;SDS011;3764;48.126;11.594;2024-01-15T02:16:50;12.68;;;7.85;;
7444;SDS011;3764;48.126;11.594;2024-01-15T02:19:18;14.82;;;7.43;;
7444;SDS011;3764;48.126;11.594;2024-01-15T02:21:46;11.38;;;6.53;;
7444;SDS011;3764;48.126;11.594;2024-01-15T02:24:14;11.88;;;6.95;;
7444;SDS011;3764;48.126;11.594;2024-01-15T02:26:42;12.07;;;6.85;;
7444;SDS011;3764;48.126;11.594;2024-01-15T02:29:09;13.85;;;7.53;;
7444;SDS011;3764;48.126;11.594;2024-01-15T02:31:37;14.95;;;7.65;;
7444;SDS011;3764;48.126;11.594;2024-01-15T02:34:05;11.15;;;7.03;;
7444;SDS011;3764;48.126;11.594;2024-01-15T02:36:32;13.35;;;7.70;;
7444;SDS011;3764;48.126;11.594;2024-01-15T02:39:00;11.52;;;7.25;;
7444;SDS011;3764;48.126;11.594;2024-01-15T02:41:28;10.27;;;5.38;;
7444;SDS011;3764;48.126;11.594;2024-01-15T02:43:56;9.00;;;5.72;;
7444;SDS011;3764;48.126;11.594;2024-01-15T02:46:23;12.07;;;6.85;;
7444;SDS011;3764;48.126;11.594;2024-01-15T02:48:50;14.98;;;6.90;;
7444;SDS011;3764;48.126;11.594;2024-01-15T02:51:18;11.60;;;6.78;;
7444;SDS011;3764;48.126;11.594;2024-01-15T02:53:45;12.38;;;7.15;;
7444;SDS011;3764;48.126;11.594;2024-01-15T02:56:12;12.57;;;6.90;;
7444;SDS011;3764;48.126;11.594;2024-01-15T02:58:41;12.25;;;8.15;;
7444;SDS011;3764;48.126;11.594;2024-01-15T03:01:08;14.65;;;7.95;;
7444;SDS011;3764;48.126;11.594;2024-01-15T03:03:35;11.95;;;7.50;;
7444;SDS011;3764;48.126;11.594;2024-01-15T03:06:03;12.75;;;6.53;;
7444;SDS011;3764;48.126;11.594;2024-01-15T03:08:30;15.02;;;6.75;;
7444;SDS011;3764;48.126;11.594;2024-01-15T03:10:58;11.93;;;6.85;;
7444;SDS011;3764;48.126;11.594;2024-01-15T03:13:25;11.13;;;6.57;;
7444;SDS011;3764;48.126;11.594;2024-01-15T03:18:28;12.50;;;6.68;;
7444;SDS011;3764;48.126;11.594;2024-01-15T03:20:55;10.93;;;6.78;;
7444;SDS011;3764;48.126;11.594;2024-01-15T03:23:22;12.75;;;7.20;;
7444;SDS011;3764;48.126;11.594;2024-01-15T03:25:50;12.50;;;6.05;;
7444;SDS011;3764;48.126;11.594;2024-01-15T03:28:17;12.18;;;7.07;;
7444;SDS011;3764;48.126;11.594;2024-01-15T03:30:44;10.05;;;6.00;;
7444;SDS011;3764;48.126;11.594;2024-01-15T03:33:13;12.10;;;6.53;;
7444;SDS011;3764;48.126;11.594;2024-01-15T03:35:40;9.90;;;5.68;;
7444;SDS011;3764;48.126;11.594;2024-01-15T03:38:08;11.80;;;5.70;;
7444;SDS011;3764;48.126;11.594;2024-01-15T03:40:34;12.82;;;6.13;;
7444;SDS011;3764;48.126;11.594;2024-01-15T03:43:01;8.93;;;5.28;;
7444;SDS011;3764;48.126;11.594;2024-01-15T03:45:29;11.48;;;5.90;;
7444;SDS011;3764;48.126;11.594;2024-01-15T03:47:56;12.27;;;5.68;;
7444;SDS011;3764;48.126;11.594;2024-01-15T03:50:25;12.77;;;5.97;;
7444;SDS011;3764;48.126;11.594;2024-01-15T03:52:52;10.10;;;5.43;;
7444;SDS011;3764;48.126;11.594;2024-01-15T03:55:19;11.77;;;6.10;;
7444;SDS011;3764;48.126;11.594;2024-01-15T03:57:47;10.95;;;6.55;;
7444;SDS011;3764;48.126;11.594;2024-01-15T04:00:14;10.23;;;5.43;;
7444;SDS011;3764;48.126;11.594;2024-01-15T04:02:43;10.43;;;5.78;;
7444;SDS011;3764;48.126;11.594;2024-01-15T04:05:10;9.60;;;5.28;;
7444;SDS011;3764;48.126;11.594;2024-01-15T04:07:39;9.10;;;6.05;;
7444;SDS011;3764;48.126;11.594;2024-01-15T04:10:06;9.35;;;5.75;;
7444;SDS011;3764;48.126;11.594;2024-01-15T04:12:34;10.43;;;5.97;;
7444;SDS011;3764;48.126;11.594;2024-01-15T04:15:01;10.50;;;5.53;;
7444;SDS011;3764;48.126;11.594;2024-01-15T04:17:29;10.57;;;5.90;;
7444;SDS011;3764;48.126;11.594;2024-01-15T04:19:56;11.07;;;5.95;;
7444;SDS011;3764;48.126;11.594;2024-01-15T04:22:24;11.88;;;7.50;;
7444;SDS011;3764;48.126;11.594;2024-01-15T04:24:53;8.77;;;4.95;;
7444;SDS011;3764;48.126;11.594;2024-01-15T04:27:21;8.70;;;6.25;;
7444;SDS011;3764;48.126;11.594;2024-01-15T04:29:48;10.27;;;6.13;;
7444;SDS011;3764;48.126;11.594;2024-01-15T04:32:15;8.57;;;5.32;;
7444;SDS011;3764;48.126;11.594;2024-01-15T04:34:42;9.95;;;5.47;;
7444;SDS011;3764;48.126;11.594;2024-01-15T04:37:10;11.25;;;5.35;;
7444;SDS011;3764;48.126;11.594;2024-01-15T04:39:37;11.30;;;5.72;;
7444;SDS011;3764;48.126;11.594;2024-01-15T04:42:06;9.88;;;5.30;;
7444;SDS011;3764;48.126;11.594;2024-01-15T04:44:33;7.05;;;5.00;;
7444;SDS011;3764;48.126;11.594;2024-01-15T04:47:01;9.60;;;5.63;;
7444;SDS011;3764;48.126;11.594;2024-01-15T04:49:27;6.60;;;4.63;;
7444;SDS011;3764;48.126;11.594;2024-01-15T04:51:55;8.75;;;5.70;;
7444;SDS011;3764;48.126;11.594;2024-01-15T04:54:22;11.27;;;5.30;;
7444;SDS011;3764;48.126;11.594;2024-01-15T04:56:49;8.98;;;5.07;;
7444;SDS011;3764;48.126;11.594;2024-01-15T04:59:18;10.48;;;5.40;;
7444;SDS011;3764;48.126;11.594;2024-01-15T05:01:45;10.75;;;5.63;;
7444;SDS011;3764;48.126;11.594;2024-01-15T05:04:14;7.90;;;5.22;;
7444;SDS011;3764;48.126;11.594;2024-01-15T05:06:41;9.70;;;4.78;;
7444;SDS011;3764;48.126;11.594;2024-01-15T05:09:08;10.60;;;5.18;;
7444;SDS011;3764;48.126;11.594;2024-01-15T05:11:36;8.63;;;5.75;;
7444;SDS011;3764;48.126;11.594;2024-01-15T05:14:03;9.15;;;5.10;;
7444;SDS011;3764;48.126;11.594;2024-01-15T05:16:32;9.57;;;4.95;;
7444;SDS011;3764;48.126;11.594;2024-01-15T05:18:59;7.18;;;5.18;;
7444;SDS011;3764;48.126;11.594;2024-01-15T05:21:26;8.90;;;4.95;;
7444;SDS011;3764;48.126;11.594;2024-01-15T05:23:53;9.60;;;5.63;;
7444;SDS011;3764;48.126;11.594;2024-01-15T05:26:21;11.13;;;5.60;;
7444;SDS011;3764;48.126;11.594;2024-01-15T05:28:48;8.75;;;4.28;;
7444;SDS011;3764;48.126;11.594;2024-01-15T05:31:15;7.40;;;4.60;;
7444;SDS011;3764;48.126;11.594;2024-01-15T05:33:44;7.25;;;4.40;;
7444;SDS011;3764;48.126;11.594;2024-01-15T05:36:11;9.50;;;4.75;;
7444;SDS011;3764;48.126;11.594;2024-01-15T05:38:39;7.28;;;3.97;;
7444;SDS011;3764;48.126;11.594;2024-01-15T05:41:06;10.25;;;4.63;;
7444;SDS011;3764;48.126;11.594;2024-01-15T05:43:34;9.80;;;5.03;;
7444;SDS011;3764;48.126;11.594;2024-01-15T05:46:01;6.18;;;4.00;;
7444;SDS011;3764;48.126;11.594;2024-01-15T05:48:29;6.65;;;4.78;;
7444;SDS011;3764;48.126;11.594;2024-01-15T05:50:57;7.85;;;4.65;;
7444;SDS011;3764;48.126;11.594;2024-01-15T05:53:25;10.93;;;6.75;;
7444;SDS011;3764;48.126;11.594;2024-01-15T05:55:52;8.95;;;5.18;;
7444;SDS011;3764;48.126;11.594;2024-01-15T05:58:21;8.52;;;4.97;;
7444;SDS011;3764;48.126;11.594;2024-01-15T06:00:48;11.40;;;4.75;;
7444;SDS011;3764;48.126;11.594;2024-01-15T06:03:16;8.25;;;4.63;;
7444;SDS011;3764;48.126;11.594;2024-01-15T06:05:43;8.20;;;5.13;;
7444;SDS011;3764;48.126;11.594;2024-01-15T06:08:12;7.20;;;4.38;;
7444;SDS011;3764;48.126;11.594;2024-01-15T06:10:40;8.15;;;5.07;;
7444;SDS011;3764;48.126;11.594;2024-01-15T06:13:07;10.30;;;4.50;;
7444;SDS011;3764;48.126;11.594;2024-01-15T06:15:34;7.70;;;4.53;;
7444;SDS011;3764;48.126;11.594;2024-01-15T06:18:01;11.77;;;4.75;;
7444;SDS011;3764;48.126;11.594;2024-01-15T06:20:29;8.32;;;5.55;;
7444;SDS011;3764;48.126;11.594;2024-01-15T06:22:56;6.85;;;4.43;;
7444;SDS011;3764;48.126;11.594;2024-01-15T06:25:25;11.25;;;5.85;;
7444;SDS011;3764;48.126;11.594;2024-01-15T06:27:52;10.13;;;4.95;;
7444;SDS011;3764;48.126;11.594;2024-01-15T06:30:19;9.60;;;5.13;;
7444;SDS011;3764;48.126;11.594;2024-01-15T06:32:47;9.25;;;4.82;;
7444;SDS011;3764;48.126;11.594;2024-01-15T06:35:15;10.55;;;5.20;;
7444;SDS011;3764;48.126;11.594;2024-01-15T06:37:42;8.85;;;5.47;;
7444;SDS011;3764;48.126;11.594;2024-01-15T06:40:10;7.45;;;4.65;;
7444;SDS011;3764;48.126;11.594;2024-01-15T06:42:39;7.97;;;4.30;;
7444;SDS011;3764;48.126;11.594;2024-01-15T06:45:06;7.90;;;4.35;;
7444;SDS011;3764;48.126;11.594;2024-01-15T06:47:35;9.40;;;5.00;;
7444;SDS011;3764;48.126;11.594;2024-01-15T06:50:02;7.88;;;4.57;;
7444;SDS011;3764;48.126;11.594;2024-01-15T06:52:32;6.72;;;4.28;;
7444;SDS011;3764;48.126;11.594;2024-01-15T06:54:59;7.70;;;5.68;;
7444;SDS011;3764;48.126;11.594;2024-01-15T06:57:26;9.98;;;5.45;;
7444;SDS011;3764;48.126;11.594;2024-01-15T06:59:55;5.55;;;4.38;;
7444;SDS011;3764;48.126;11.594;2024-01-15T07:02:22;10.90;;;5.07;;
7444;SDS011;3764;48.126;11.594;2024-01-15T07:04:50;6.55;;;4.40;;
7444;SDS011;3764;48.126;11.594;2024-01-15T07:07:17;10.65;;;4.53;;
7444;SDS011;3764;48.126;11.594;2024-01-15T07:09:44;9.10;;;5.00;;
7444;SDS011;3764;48.126;11.594;2024-01-15T07:12:12;7.40;;;4.80;;
7444;SDS011;3764;48.126;11.594;2024-01-15T07:14:39;10.02;;;5.53;;
7444;SDS011;3764;48.126;11.594;2024-01-15T07:17:08;5.68;;;3.55;;
7444;SDS011;3764;48.126;11.594;2024-01-15T07:19:35;6.88;;;3.70;;
7444;SDS011;3764;48.126;11.594;2024-01-15T07:22:02;8.68;;;4.68;;
7444;SDS011;3764;48.126;11.594;2024-01-15T07:24:30;10.93;;;5.88;;
7444;SDS011;3764;48.126;11.594;2024-01-15T07:26:59;8.40;;;5.70;;
7444;SDS011;3764;48.126;11.594;2024-01-15T07:29:26;7.10;;;4.20;;
7444;SDS011;3764;48.126;11.594;2024-01-15T07:31:54;14.52;;;5.90;;
7444;SDS011;3764;48.126;11.594;2024-01-15T07:34:22;10.68;;;5.50;;
7444;SDS011;3764;48.126;11.594;2024-01-15T07:36:50;10.55;;;5.90;;
7444;SDS011;3764;48.126;11.594;2024-01-15T07:39:17;9.98;;;5.13;;
7444;SDS011;3764;48.126;11.594;2024-01-15T07:41:44;8.90;;;5.20;;
7444;SDS011;3764;48.126;11.594;2024-01-15T07:44:12;9.93;;;5.80;;
7444;SDS011;3764;48.126;11.594;2024-01-15T07:46:40;11.35;;;5.18;;
7444;SDS011;3764;48.126;11.594;2024-01-15T07:49:10;9.25;;;5.32;;
7444;SDS011;3764;48.126;11.594;2024-01-15T07:51:40;11.77;;;5.28;;
7444;SDS011;3764;48.126;11.594;2024-01-15T07:54:09;8.00;;;4.55;;
7444;SDS011;3764;48.126;11.594;2024-01-15T07:59:23;8.80;;;5.15;;
7444;SDS011;3764;48.126;11.594;2024-01-15T08:01:51;11.25;;;4.38;;
7444;SDS011;3764;48.126;11.594;2024-01-15T08:04:18;8.60;;;5.20;;
7444;SDS011;3764;48.126;11.594;2024-01-15T08:06:48;9.35;;;5.53;;
7444;SDS011;3764;48.126;11.594;2024-01-15T08:09:15;10.88;;;5.15;;
7444;SDS011;3764;48.126;11.594;2024-01-15T08:11:43;10.32;;;5.50;;
7444;SDS011;3764;48.126;11.594;2024-01-15T08:14:10;8.35;;;6.38;;
7444;SDS011;3764;48.126;11.594;2024-01-15T08:16:38;13.93;;;6.07;;
7444;SDS011;3764;48.126;11.594;2024-01-15T08:19:06;8.68;;;5.15;;
7444;SDS011;3764;48.126;11.594;2024-01-15T08:21:33;7.65;;;5.95;;
7444;SDS011;3764;48.126;11.594;2024-01-15T08:24:02;10.10;;;6.03;;
7444;SDS011;3764;48.126;11.594;2024-01-15T08:26:30;9.65;;;5.80;;
7444;SDS011;3764;48.126;11.594;2024-01-15T08:28:58;10.98;;;5.10;;
7444;SDS011;3764;48.126;11.594;2024-01-15T08:31:26;9.02;;;6.97;;
7444;SDS011;3764;48.126;11.594;2024-01-15T08:33:53;8.85;;;5.07;;
7444;SDS011;3764;48.126;11.594;2024-01-15T08:36:21;8.45;;;5.03;;
7444;SDS011;3764;48.126;11.594;2024-01-15T08:38:49;6.20;;;4.10;;
7444;SDS011;3764;48.126;11.594;2024-01-15T08:41:18;11.35;;;7.18;;
7444;SDS011;3764;48.126;11.594;2024-01-15T08:43:45;7.40;;;4.60;;
7444;SDS011;3764;48.126;11.594;2024-01-15T08:46:13;13.50;;;5.68;;
7444;SDS011;3764;48.126;11.594;2024-01-15T08:48:40;9.85;;;5.45;;
7444;SDS011;3764;48.126;11.594;2024-01-15T08:51:07;8.25;;;5.25;;
7444;SDS011;3764;48.126;11.594;2024-01-15T08:53:35;9.75;;;5.40;;
7444;SDS011;3764;48.126;11.594;2024-01-15T08:56:02;9.90;;;5.70;;
7444;SDS011;3764;48.126;11.594;2024-01-15T08:58:31;8.80;;;5.22;;
7444;SDS011;3764;48.126;11.594;2024-01-15T09:00:58;10.43;;;4.97;;
7444;SDS011;3764;48.126;11.594;2024-01-15T09:03:26;10.13;;;4.93;;
7444;SDS011;3764;48.126;11.594;2024-01-15T09:05:53;8.93;;;5.10;;
7444;SDS011;3764;48.126;11.594;2024-01-15T09:08:21;10.73;;;5.40;;
7444;SDS011;3764;48.126;11.594;2024-01-15T09:10:48;10.05;;;4.95;;
7444;SDS011;3764;48.126;11.594;2024-01-15T09:13:16;9.25;;;5.55;;
7444;SDS011;3764;48.126;11.594;2024-01-15T09:15:45;9.85;;;4.90;;
7444;SDS011;3764;48.126;11.594;2024-01-15T09:18:12;10.05;;;5.22;;
7444;SDS011;3764;48.126;11.594;2024-01-15T09:20:40;12.10;;;5.65;;
7444;SDS011;3764;48.126;11.594;2024-01-15T09:23:07;8.68;;;5.70;;
7444;SDS011;3764;48.126;11.594;2024-01-15T09:25:34;11.50;;;5.40;;
7444;SDS011;3764;48.126;11.594;2024-01-15T09:28:02;8.55;;;5.80;;
7444;SDS011;3764;48.126;11.594;2024-01-15T09:30:29;12.38;;;6.30;;
7444;SDS011;3764;48.126;11.594;2024-01-15T09:32:58;6.55;;;4.32;;
7444;SDS011;3764;48.126;11.594;2024-01-15T09:35:25;9.20;;;6.00;;
7444;SDS011;3764;48.126;11.594;2024-01-15T09:37:53;7.93;;;5.32;;
7444;SDS011;3764;48.126;11.594;2024-01-15T09:40:20;10.73;;;5.72;;
7444;SDS011;3764;48.126;11.594;2024-01-15T09:42:48;9.77;;;4.90;;
7444;SDS011;3764;48.126;11.594;2024-01-15T09:45:17;10.40;;;4.53;;
7444;SDS011;3764;48.126;11.594;2024-01-15T09:47:45;7.25;;;3.85;;
7444;SDS011;3764;48.126;11.594;2024-01-15T09:50:14;8.05;;;4.38;;
7444;SDS011;3764;48.126;11.594;2024-01-15T09:52:42;8.32;;;4.57;;
7444;SDS011;3764;48.126;11.594;2024-01-15T09:55:09;12.10;;;4.93;;
7444;SDS011;3764;48.126;11.594;2024-01-15T09:57:37;10.50;;;4.20;;
7444;SDS011;3764;48.126;11.594;2024-01-15T10:00:06;6.97;;;3.78;;
7444;SDS011;3764;48.126;11.594;2024-01-15T10:02:36;5.82;;;4.05;;
7444;SDS011;3764;48.126;11.594;2024-01-15T10:05:04;6.32;;;4.15;;
7444;SDS011;3764;48.126;11.594;2024-01-15T10:07:33;6.90;;;4.85;;
7444;SDS011;3764;48.126;11.594;2024-01-15T10:10:03;6.63;;;4.10;;
7444;SDS011;3764;48.126;11.594;2024-01-15T10:12:32;5.60;;;3.63;;
7444;SDS011;3764;48.126;11.594;2024-01-15T10:15:01;6.00;;;4.15;;
7444;SDS011;3764;48.126;11.594;2024-01-15T10:17:29;3.88;;;3.28;;
7444;SDS011;3764;48.126;11.594;2024-01-15T10:19:57;7.22;;;3.58;;
7444;SDS011;3764;48.126;11.594;2024-01-15T10:22:25;7.97;;;4.05;;
7444;SDS011;3764;48.126;11.594;2024-01-15T10:24:54;8.80;;;4.50;;
7444;SDS011;3764;48.126;11.594;2024-01-15T10:27:22;6.18;;;3.30;;
7444;SDS011;3764;48.126;11.594;2024-01-15T10:29:50;7.55;;;4.00;;
7444;SDS011;3764;48.126;11.594;2024-01-15T10:32:19;5.82;;;3.25;;
7444;SDS011;3764;48.126;11.594;2024-01-15T10:34:49;5.50;;;3.65;;
7444;SDS011;3764;48.126;11.594;2024-01-15T10:37:19;4.70;;;3.53;;
7444;SDS011;3764;48.126;11.594;2024-01-15T10:39:47;7.22;;;3.83;;
7444;SDS011;3764;48.126;11.594;2024-01-15T10:42:15;7.38;;;4.07;;
7444;SDS011;3764;48.126;11.594;2024-01-15T10:44:43;9.77;;;4.22;;
7444;SDS011;3764;48.126;11.594;2024-01-15T10:47:12;7.57;;;4.20;;
7444;SDS011;3764;48.126;11.594;2024-01-15T10:49:39;5.57;;;3.38;;
7444;SDS011;3764;48.126;11.594;2024-01-15T10:52:07;7.25;;;3.45;;
7444;SDS011;3764;48.126;11.594;2024-01-15T10:54:34;7.63;;;4.10;;
7444;SDS011;3764;48.126;11.594;2024-01-15T10:57:04;3.65;;;2.97;;
7444;SDS011;3764;48.126;11.594;2024-01-15T10:59:33;5.70;;;3.75;;
7444;SDS011;3764;48.126;11.594;2024-01-15T11:02:03;5.18;;;3.45;;
7444;SDS011;3764;48.126;11.594;2024-01-15T11:04:31;8.88;;;4.00;;
7444;SDS011;3764;48.126;11.594;2024-01-15T11:06:59;5.00;;;3.58;;
7444;SDS011;3764;48.126;11.594;2024-01-15T11:09:29;5.38;;;3.33;;
7444;SDS011;3764;48.126;11.594;2024-01-15T11:12:06;5.05;;;3.70;;
7444;SDS011;3764;48.126;11.594;2024-01-15T11:14:38;4.38;;;3.63;;
7444;SDS011;3764;48.126;11.594;2024-01-15T11:17:09;4.18;;;3.00;;
7444;SDS011;3764;48.126;11.594;2024-01-15T11:19:36;5.43;;;3.17;;
7444;SDS011;3764;48.126;11.594;2024-01-15T11:22:07;5.57;;;3.47;;
7444;SDS011;3764;48.126;11.594;2024-01-15T11:24:35;3.95;;;2.97;;
7444;SDS011;3764;48.126;11.594;2024-01-15T11:27:03;3.50;;;2.88;;
7444;SDS011;3764;48.126;11.594;2024-01-15T11:29:31;5.68;;;3.20;;
7444;SDS011;3764;48.126;11.594;2024-01-15T11:32:02;3.78;;;2.85;;
7444;SDS011;3764;48.126;11.594;2024-01-15T11:37:17;5.32;;;3.15;;
7444;SDS011;3764;48.126;11.594;2024-01-15T11:39:45;4.70;;;2.80;;
7444;SDS011;3764;48.126;11.594;2024-01-15T11:42:13;4.75;;;3.10;;
7444;SDS011;3764;48.126;11.594;2024-01-15T11:44:41;4.18;;;3.25;;
7444;SDS011;3764;48.126;11.594;2024-01-15T11:47:10;7.13;;;3.05;;
7444;SDS011;3764;48.126;11.594;2024-01-15T11:52:32;5.95;;;3.83;;
7444;SDS011;3764;48.126;11.594;2024-01-15T11:55:01;5.55;;;3.40;;
7444;SDS011;3764;48.126;11.594;2024-01-15T11:57:37;4.97;;;3.00;;
7444;SDS011;3764;48.126;11.594;2024-01-15T12:00:08;5.50;;;2.92;;
7444;SDS011;3764;48.126;11.594;2024-01-15T12:02:38;3.88;;;2.53;;
7444;SDS011;3764;48.126;11.594;2024-01-15T12:05:07;6.40;;;3.78;;
7444;SDS011;3764;48.126;11.594;2024-01-15T12:07:35;4.65;;;2.60;;
7444;SDS011;3764;48.126;11.594;2024-01-15T12:10:03;4.22;;;2.90;;
7444;SDS011;3764;48.126;11.594;2024-01-15T12:12:39;5.50;;;2.85;;
7444;SDS011;3764;48.126;11.594;2024-01-15T12:15:14;5.40;;;2.75;;
7444;SDS011;3764;48.126;11.594;2024-01-15T12:17:43;3.58;;;3.17;;
7444;SDS011;3764;48.126;11.594;2024-01-15T12:20:12;4.00;;;2.85;;
7444;SDS011;3764;48.126;11.594;2024-01-15T12:22:41;5.18;;;2.90;;
7444;SDS011;3764;48.126;11.594;2024-01-15T12:25:08;2.80;;;2.45;;
7444;SDS011;3764;48.126;11.594;2024-01-15T12:27:36;5.95;;;3.60;;
7444;SDS011;3764;48.126;11.594;2024-01-15T12:30:04;3.88;;;2.70;;
7444;SDS011;3764;48.126;11.594;2024-01-15T12:32:32;3.88;;;2.63;;
7444;SDS011;3764;48.126;11.594;2024-01-15T12:35:04;3.78;;;2.78;;
7444;SDS011;3764;48.126;11.594;2024-01-15T12:37:32;4.65;;;2.50;;
7444;SDS011;3764;48.126;11.594;2024-01-15T12:40:01;7.22;;;2.80;;
7444;SDS011;3764;48.126;11.594;2024-01-15T12:42:29;4.65;;;2.35;;
7444;SDS011;3764;48.126;11.594;2024-01-15T12:44:57;4.30;;;2.13;;
7444;SDS011;3764;48.126;11.594;2024-01-15T12:47:24;5.75;;;2.83;;
7444;SDS011;3764;48.126;11.594;2024-01-15T12:49:52;2.95;;;2.60;;
7444;SDS011;3764;48.126;11.594;2024-01-15T12:52:21;3.05;;;2.30;;
7444;SDS011;3764;48.126;11.594;2024-01-15T12:54:49;6.38;;;3.10;;
7444;SDS011;3764;48.126;11.594;2024-01-15T12:57:16;5.47;;;2.80;;
7444;SDS011;3764;48.126;11.594;2024-01-15T12:59:44;6.50;;;2.50;;
7444;SDS011;3764;48.126;11.594;2024-01-15T13:02:12;4.05;;;2.72;;
7444;SDS011;3764;48.126;11.594;2024-01-15T13:04:39;6.40;;;2.42;;
7444;SDS011;3764;48.126;11.594;2024-01-15T13:07:07;6.53;;;2.47;;
7444;SDS011;3764;48.126;11.594;2024-01-15T13:09:36;4.20;;;2.95;;
7444;SDS011;3764;48.126;11.594;2024-01-15T13:12:03;3.75;;;2.53;;
7444;SDS011;3764;48.126;11.594;2024-01-15T13:14:32;4.60;;;2.63;;
7444;SDS011;3764;48.126;11.594;2024-01-15T13:16:59;3.40;;;2.40;;
7444;SDS011;3764;48.126;11.594;2024-01-15T13:19:26;5.75;;;2.60;;
7444;SDS011;3764;48.126;11.594;2024-01-15T13:21:54;5.05;;;3.33;;
7444;SDS011;3764;48.126;11.594;2024-01-15T13:24:24;11.43;;;3.15;;
7444;SDS011;3764;48.126;11.594;2024-01-15T13:26:52;3.05;;;2.50;;
7444;SDS011;3764;48.126;11.594;2024-01-15T13:29:20;5.50;;;2.85;;
7444;SDS011;3764;48.126;11.594;2024-01-15T13:31:47;4.43;;;3.10;;
7444;SDS011;3764;48.126;11.594;2024-01-15T13:34:15;3.67;;;3.15;;
7444;SDS011;3764;48.126;11.594;2024-01-15T13:36:42;3.90;;;2.55;;
7444;SDS011;3764;48.126;11.594;2024-01-15T13:39:10;3.65;;;2.58;;
7444;SDS011;3764;48.126;11.594;2024-01-15T13:41:37;5.22;;;3.20;;
7444;SDS011;3764;48.126;11.594;2024-01-15T13:44:06;5.30;;;2.90;;
7444;SDS011;3764;48.126;11.594;2024-01-15T13:46:35;4.53;;;2.70;;
7444;SDS011;3764;48.126;11.594;2024-01-15T13:49:03;2.80;;;2.58;;
7444;SDS011;3764;48.126;11.594;2024-01-15T13:51:31;6.90;;;3.72;;
7444;SDS011;3764;48.126;11.594;2024-01-15T13:53:58;4.40;;;3.00;;
7444;SDS011;3764;48.126;11.594;2024-01-15T13:56:26;9.10;;;3.60;;
7444;SDS011;3764;48.126;11.594;2024-01-15T13:58:57;5.05;;;3.22;;
7444;SDS011;3764;48.126;11.594;2024-01-15T14:01:26;4.60;;;2.97;;
7444;SDS011;3764;48.126;11.594;2024-01-15T14:03:54;5.22;;;3.03;;
7444;SDS011;3764;48.126;11.594;2024-01-15T14:06:21;3.88;;;2.97;;
7444;SDS011;3764;48.126;11.594;2024-01-15T14:08:49;6.20;;;3.17;;
7444;SDS011;3764;48.126;11.594;2024-01-15T14:11:17;4.30;;;2.95;;
7444;SDS011;3764;48.126;11.594;2024-01-15T14:13:45;6.50;;;4.13;;
7444;SDS011;3764;48.126;11.594;2024-01-15T14:16:12;4.53;;;3.05;;
7444;SDS011;3764;48.126;11.594;2024-01-15T14:18:41;4.20;;;3.38;;
7444;SDS011;3764;48.126;11.594;2024-01-15T14:21:09;5.07;;;3.20;;
7444;SDS011;3764;48.126;11.594;2024-01-15T14:23:36;5.53;;;3.90;;
7444;SDS011;3764;48.126;11.594;2024-01-15T14:26:03;5.20;;;3.35;;
7444;SDS011;3764;48.126;11.594;2024-01-15T14:28:31;3.83;;;2.63;;
7444;SDS011;3764;48.126;11.594;2024-01-15T14:30:58;8.30;;;3.65;;
7444;SDS011;3764;48.126;11.594;2024-01-15T14:33:26;5.60;;;3.05;;
7444;SDS011;3764;48.126;11.594;2024-01-15T14:35:54;6.63;;;3.13;;
7444;SDS011;3764;48.126;11.594;2024-01-15T14:38:22;4.97;;;3.05;;
7444;SDS011;3764;48.126;11.594;2024-01-15T14:40:49;5.40;;;3.72;;
7444;SDS011;3764;48.126;11.594;2024-01-15T14:43:17;4.80;;;3.50;;
7444;SDS011;3764;48.126;11.594;2024-01-15T14:45:45;5.60;;;3.15;;
7444;SDS011;3764;48.126;11.594;2024-01-15T14:48:12;5.72;;;3.22;;
7444;SDS011;3764;48.126;11.594;2024-01-15T14:50:40;6.30;;;3.15;;
7444;SDS011;3764;48.126;11.594;2024-01-15T14:53:08;4.03;;;2.83;;
7444;SDS011;3764;48.126;11.594;2024-01-15T14:55:36;5.63;;;3.10;;
7444;SDS011;3764;48.126;11.594;2024-01-15T14:58:03;5.60;;;3.17;;
7444;SDS011;3764;48.126;11.594;2024-01-15T15:00:31;6.63;;;4.47;;
7444;SDS011;3764;48.126;11.594;2024-01-15T15:02:58;4.15;;;3.28;;
7444;SDS011;3764;48.126;11.594;2024-01-15T15:05:25;4.97;;;3.60;;
7444;SDS011;3764;48.126;11.594;2024-01-15T15:07:53;6.43;;;3.13;;
7444;SDS011;3764;48.126;11.594;2024-01-15T15:10:21;5.22;;;2.92;;